XNO70F EDDH-EGSS
Flight info
| Callsign | XNO70F |
|---|---|
| Flight time | 1h 10m |
| Altitude | 40000 |
| Route | WSN5C WSN N125 EKNON DCT NOGRO M40 RINIS |
| Aircraft | A359/H-SDE2E3GHIJ3J4J5LM1ORWXY/LB1D1 |
Departure
| Time | 2026-05-05 11:20 |
|---|---|
| Airport | Hamburg Helmut Schmidt Airport (EDDH) |
Arrival
| Time | 2026-05-05 12:30 |
|---|---|
| Airport | London Stansted Airport (EGSS) |
| Time | Latitude | Longitude | Altitude | Speed | Heading |
|---|---|---|---|---|---|
| 2026-05-05 10:38 | 53.62952 | 10.00270 | 52 ft | 0 kts | 122° |
| 2026-05-05 11:10 | 53.62964 | 10.00238 | 48 ft | 4 kts | 122° |
| 2026-05-05 11:11 | 53.62978 | 10.00199 | 44 ft | 3 kts | 122° |
| 2026-05-05 11:11 | 53.62991 | 10.00173 | 48 ft | 4 kts | 180° |
| 2026-05-05 11:11 | 53.63009 | 10.00191 | 44 ft | 4 kts | 224° |
| 2026-05-05 11:11 | 53.63024 | 10.00213 | 44 ft | 1 kts | 212° |
| 2026-05-05 11:12 | 53.63027 | 10.00216 | 45 ft | 0 kts | 212° |
| 2026-05-05 11:17 | 53.62998 | 10.00186 | 44 ft | 8 kts | 212° |
| 2026-05-05 11:17 | 53.62937 | 10.00121 | 48 ft | 13 kts | 212° |
| 2026-05-05 11:17 | 53.62862 | 10.00012 | 48 ft | 16 kts | 234° |
| 2026-05-05 11:17 | 53.62853 | 9.99990 | 48 ft | 0 kts | 238° |
| 2026-05-05 11:18 | 53.62829 | 9.99917 | 50 ft | 12 kts | 243° |
| 2026-05-05 11:18 | 53.62840 | 9.99783 | 49 ft | 14 kts | 313° |
| 2026-05-05 11:19 | 53.62887 | 9.99727 | 47 ft | 0 kts | 329° |
| 2026-05-05 11:19 | 53.62984 | 9.99633 | 49 ft | 57 kts | 331° |
| 2026-05-05 11:19 | 53.63599 | 9.99110 | 49 ft | 139 kts | 332° |
| 2026-05-05 11:19 | 53.64651 | 9.98197 | 263 ft | 191 kts | 336° |
| 2026-05-05 11:20 | 53.65930 | 9.97122 | 789 ft | 225 kts | 336° |
| 2026-05-05 11:20 | 53.67472 | 9.95918 | 1343 ft | 266 kts | 337° |
| 2026-05-05 11:20 | 53.69273 | 9.94502 | 1935 ft | 304 kts | 336° |
| 2026-05-05 11:20 | 53.71270 | 9.92841 | 2665 ft | 331 kts | 330° |
| 2026-05-05 11:21 | 53.73028 | 9.90372 | 4095 ft | 321 kts | 312° |
| 2026-05-05 11:21 | 53.74155 | 9.87321 | 5332 ft | 300 kts | 287° |
| 2026-05-05 11:21 | 53.74238 | 9.83885 | 6782 ft | 293 kts | 257° |
| 2026-05-05 11:21 | 53.73310 | 9.80910 | 8239 ft | 283 kts | 229° |
| 2026-05-05 11:22 | 53.71824 | 9.78859 | 9246 ft | 273 kts | 218° |
| 2026-05-05 11:22 | 53.70425 | 9.76723 | 9779 ft | 271 kts | 229° |
| 2026-05-05 11:22 | 53.69281 | 9.74173 | 9931 ft | 273 kts | 238° |
| 2026-05-05 11:22 | 53.68364 | 9.71365 | 9940 ft | 274 kts | 244° |
| 2026-05-05 11:23 | 53.67587 | 9.68422 | 9936 ft | 275 kts | 248° |
| 2026-05-05 11:23 | 53.66889 | 9.65419 | 9935 ft | 275 kts | 250° |
| 2026-05-05 11:23 | 53.66231 | 9.62390 | 9938 ft | 275 kts | 250° |
| 2026-05-05 11:23 | 53.65571 | 9.59358 | 9945 ft | 276 kts | 248° |
| 2026-05-05 11:24 | 53.64666 | 9.56515 | 9930 ft | 276 kts | 237° |
| 2026-05-05 11:24 | 53.63565 | 9.53864 | 9928 ft | 276 kts | 235° |
| 2026-05-05 11:24 | 53.62435 | 9.51247 | 9933 ft | 276 kts | 234° |
| 2026-05-05 11:24 | 53.61306 | 9.48631 | 9931 ft | 276 kts | 235° |
| 2026-05-05 11:25 | 53.60182 | 9.46018 | 9974 ft | 274 kts | 235° |
| 2026-05-05 11:25 | 53.59054 | 9.43386 | 10215 ft | 284 kts | 237° |
| 2026-05-05 11:25 | 53.57860 | 9.40554 | 10583 ft | 310 kts | 236° |
| 2026-05-05 11:25 | 53.56570 | 9.37528 | 11402 ft | 324 kts | 236° |
| 2026-05-05 11:26 | 53.55235 | 9.34418 | 12403 ft | 332 kts | 236° |
| 2026-05-05 11:26 | 53.53869 | 9.31244 | 13419 ft | 339 kts | 236° |
| 2026-05-05 11:26 | 53.52476 | 9.28007 | 14384 ft | 344 kts | 236° |
| 2026-05-05 11:26 | 53.51064 | 9.24742 | 15374 ft | 347 kts | 236° |
| 2026-05-05 11:27 | 53.49638 | 9.21456 | 16403 ft | 349 kts | 236° |
| 2026-05-05 11:27 | 53.48202 | 9.18146 | 17447 ft | 353 kts | 237° |
| 2026-05-05 11:27 | 53.47238 | 9.15929 | 18146 ft | 355 kts | 237° |
| 2026-05-05 11:27 | 53.45777 | 9.12568 | 19054 ft | 359 kts | 237° |
| 2026-05-05 11:28 | 53.44293 | 9.09173 | 19953 ft | 363 kts | 236° |
| 2026-05-05 11:28 | 53.42785 | 9.05756 | 20869 ft | 366 kts | 236° |
| 2026-05-05 11:28 | 53.41263 | 9.02303 | 21787 ft | 370 kts | 236° |
| 2026-05-05 11:28 | 53.39728 | 8.98811 | 22643 ft | 375 kts | 235° |
| 2026-05-05 11:29 | 53.38163 | 8.95248 | 23404 ft | 383 kts | 235° |
| 2026-05-05 11:29 | 53.36586 | 8.91640 | 24175 ft | 385 kts | 236° |
| 2026-05-05 11:29 | 53.35092 | 8.87913 | 25013 ft | 385 kts | 242° |
| 2026-05-05 11:29 | 53.33933 | 8.83870 | 25851 ft | 386 kts | 249° |
| 2026-05-05 11:30 | 53.32947 | 8.79676 | 26617 ft | 388 kts | 250° |
| 2026-05-05 11:30 | 53.32027 | 8.75428 | 27418 ft | 390 kts | 251° |
| 2026-05-05 11:30 | 53.31123 | 8.71126 | 28163 ft | 393 kts | 251° |
| 2026-05-05 11:30 | 53.30206 | 8.66801 | 28905 ft | 396 kts | 251° |
| 2026-05-05 11:31 | 53.29274 | 8.62450 | 29642 ft | 399 kts | 251° |
| 2026-05-05 11:31 | 53.28327 | 8.58074 | 30280 ft | 402 kts | 251° |
| 2026-05-05 11:31 | 53.27367 | 8.53670 | 30822 ft | 405 kts | 250° |
| 2026-05-05 11:31 | 53.26407 | 8.49288 | 31358 ft | 409 kts | 250° |
| 2026-05-05 11:32 | 53.25471 | 8.44787 | 31887 ft | 412 kts | 252° |
| 2026-05-05 11:32 | 53.24603 | 8.40207 | 32398 ft | 415 kts | 253° |
| 2026-05-05 11:32 | 53.23761 | 8.35579 | 32884 ft | 418 kts | 253° |
| 2026-05-05 11:32 | 53.22917 | 8.30918 | 33373 ft | 421 kts | 252° |
| 2026-05-05 11:33 | 53.22055 | 8.26217 | 33810 ft | 424 kts | 252° |
| 2026-05-05 11:33 | 53.21179 | 8.21510 | 34191 ft | 427 kts | 252° |
| 2026-05-05 11:33 | 53.20282 | 8.16750 | 34407 ft | 434 kts | 252° |
| 2026-05-05 11:33 | 53.19360 | 8.11906 | 34597 ft | 441 kts | 252° |
| 2026-05-05 11:34 | 53.18432 | 8.07023 | 34939 ft | 443 kts | 251° |
| 2026-05-05 11:34 | 53.17492 | 8.02123 | 35365 ft | 443 kts | 251° |
| 2026-05-05 11:34 | 53.16550 | 7.97226 | 35760 ft | 445 kts | 251° |
| 2026-05-05 11:34 | 53.15604 | 7.92299 | 36107 ft | 447 kts | 251° |
| 2026-05-05 11:35 | 53.14659 | 7.87362 | 36468 ft | 449 kts | 252° |
| 2026-05-05 11:35 | 53.13710 | 7.82397 | 36817 ft | 450 kts | 252° |
| 2026-05-05 11:35 | 53.12758 | 7.77420 | 37178 ft | 452 kts | 252° |
| 2026-05-05 11:35 | 53.11803 | 7.72430 | 37536 ft | 453 kts | 252° |
| 2026-05-05 11:36 | 53.10842 | 7.67423 | 37877 ft | 455 kts | 252° |
| 2026-05-05 11:36 | 53.09883 | 7.62401 | 38185 ft | 457 kts | 252° |
| 2026-05-05 11:36 | 53.08912 | 7.57347 | 38448 ft | 460 kts | 252° |
| 2026-05-05 11:36 | 53.07930 | 7.52280 | 38759 ft | 461 kts | 252° |
| 2026-05-05 11:37 | 53.06940 | 7.47201 | 39073 ft | 461 kts | 252° |
| 2026-05-05 11:37 | 53.05949 | 7.42131 | 39363 ft | 460 kts | 252° |
| 2026-05-05 11:37 | 53.04957 | 7.37068 | 39664 ft | 461 kts | 252° |
| 2026-05-05 11:37 | 53.03964 | 7.32010 | 39885 ft | 462 kts | 252° |
| 2026-05-05 11:38 | 53.02964 | 7.26928 | 39917 ft | 462 kts | 251° |
| 2026-05-05 11:38 | 53.00973 | 7.16866 | 39936 ft | 461 kts | 251° |
| 2026-05-05 11:39 | 52.98929 | 7.06739 | 39945 ft | 462 kts | 251° |
| 2026-05-05 11:39 | 52.96886 | 6.96652 | 39947 ft | 463 kts | 251° |
| 2026-05-05 11:40 | 52.94819 | 6.86544 | 39952 ft | 463 kts | 251° |
| 2026-05-05 11:40 | 52.92739 | 6.76452 | 39953 ft | 463 kts | 251° |
| 2026-05-05 11:41 | 52.90644 | 6.66348 | 39955 ft | 463 kts | 251° |
| 2026-05-05 11:41 | 52.88544 | 6.56270 | 39958 ft | 463 kts | 251° |
| 2026-05-05 11:42 | 52.86434 | 6.46194 | 39944 ft | 464 kts | 251° |
| 2026-05-05 11:42 | 52.84314 | 6.36115 | 39944 ft | 464 kts | 251° |
| 2026-05-05 11:43 | 52.82185 | 6.26038 | 39944 ft | 464 kts | 250° |
| 2026-05-05 11:43 | 52.80012 | 6.15982 | 39947 ft | 464 kts | 250° |
| 2026-05-05 11:44 | 52.77842 | 6.05940 | 39944 ft | 464 kts | 250° |
| 2026-05-05 11:44 | 52.75586 | 5.95951 | 39945 ft | 465 kts | 248° |
| 2026-05-05 11:45 | 52.72953 | 5.86210 | 39948 ft | 465 kts | 246° |
| 2026-05-05 11:45 | 52.70264 | 5.76522 | 39946 ft | 465 kts | 246° |
| 2026-05-05 11:46 | 52.67612 | 5.66798 | 39946 ft | 465 kts | 246° |
| 2026-05-05 11:46 | 52.64997 | 5.57137 | 39944 ft | 465 kts | 246° |
| 2026-05-05 11:47 | 52.62359 | 5.47422 | 39942 ft | 466 kts | 246° |
| 2026-05-05 11:47 | 52.59708 | 5.37685 | 39943 ft | 467 kts | 246° |
| 2026-05-05 11:48 | 52.55701 | 5.23088 | 39945 ft | 467 kts | 245° |
| 2026-05-05 11:48 | 52.53003 | 5.13391 | 39948 ft | 467 kts | 245° |
| 2026-05-05 11:49 | 52.50309 | 5.03690 | 39949 ft | 467 kts | 245° |
| 2026-05-05 11:49 | 52.47625 | 4.93996 | 39948 ft | 467 kts | 245° |
| 2026-05-05 11:50 | 52.44931 | 4.84304 | 39941 ft | 467 kts | 245° |
| 2026-05-05 11:50 | 52.42221 | 4.74611 | 39934 ft | 467 kts | 245° |
| 2026-05-05 11:51 | 52.39503 | 4.64931 | 39953 ft | 468 kts | 245° |
| 2026-05-05 11:51 | 52.36773 | 4.55248 | 39950 ft | 469 kts | 245° |
| 2026-05-05 11:52 | 52.34036 | 4.45579 | 39949 ft | 469 kts | 245° |
| 2026-05-05 11:52 | 52.31287 | 4.35914 | 39950 ft | 469 kts | 245° |
| 2026-05-05 11:53 | 52.28532 | 4.26263 | 39947 ft | 469 kts | 245° |
| 2026-05-05 11:53 | 52.25770 | 4.16632 | 39947 ft | 469 kts | 245° |
| 2026-05-05 11:54 | 52.23004 | 4.07002 | 39952 ft | 469 kts | 245° |
| 2026-05-05 11:54 | 52.20253 | 3.97448 | 39942 ft | 468 kts | 245° |
| 2026-05-05 11:55 | 52.17472 | 3.87849 | 39956 ft | 469 kts | 245° |
| 2026-05-05 11:55 | 52.14674 | 3.78249 | 39955 ft | 469 kts | 244° |
| 2026-05-05 11:56 | 52.11871 | 3.68667 | 39961 ft | 469 kts | 244° |
| 2026-05-05 11:56 | 52.09065 | 3.59136 | 39573 ft | 463 kts | 244° |
| 2026-05-05 11:57 | 52.07674 | 3.54423 | 38900 ft | 462 kts | 244° |
| 2026-05-05 11:57 | 52.06282 | 3.49714 | 38135 ft | 463 kts | 244° |
| 2026-05-05 11:57 | 52.04886 | 3.44997 | 37304 ft | 462 kts | 244° |
| 2026-05-05 11:57 | 52.03495 | 3.40300 | 36507 ft | 461 kts | 244° |
| 2026-05-05 11:58 | 52.02104 | 3.35611 | 35704 ft | 460 kts | 244° |
| 2026-05-05 11:58 | 52.00718 | 3.30944 | 34954 ft | 458 kts | 244° |
| 2026-05-05 11:58 | 51.99335 | 3.26295 | 34216 ft | 456 kts | 243° |
| 2026-05-05 11:58 | 51.97979 | 3.21662 | 33391 ft | 454 kts | 245° |
| 2026-05-05 11:59 | 51.96912 | 3.16830 | 32327 ft | 458 kts | 253° |
| 2026-05-05 11:59 | 51.96279 | 3.11747 | 31177 ft | 464 kts | 259° |
| 2026-05-05 11:59 | 51.95842 | 3.06520 | 30025 ft | 470 kts | 261° |
| 2026-05-05 11:59 | 51.95482 | 3.01250 | 28956 ft | 469 kts | 262° |
| 2026-05-05 12:00 | 51.95159 | 2.96008 | 28071 ft | 466 kts | 262° |
| 2026-05-05 12:00 | 51.94844 | 2.90806 | 27288 ft | 461 kts | 263° |
| 2026-05-05 12:00 | 51.94542 | 2.85663 | 26521 ft | 456 kts | 263° |
| 2026-05-05 12:00 | 51.94237 | 2.80571 | 25726 ft | 453 kts | 263° |
| 2026-05-05 12:01 | 51.93921 | 2.75520 | 24981 ft | 448 kts | 262° |
| 2026-05-05 12:01 | 51.93598 | 2.70525 | 24263 ft | 443 kts | 263° |
| 2026-05-05 12:01 | 51.93264 | 2.65573 | 23471 ft | 441 kts | 263° |
| 2026-05-05 12:01 | 51.92917 | 2.60653 | 22543 ft | 438 kts | 262° |
| 2026-05-05 12:02 | 51.92562 | 2.55783 | 21748 ft | 433 kts | 262° |
| 2026-05-05 12:02 | 51.92216 | 2.50970 | 20967 ft | 428 kts | 263° |
| 2026-05-05 12:02 | 51.91875 | 2.46204 | 20157 ft | 424 kts | 263° |
| 2026-05-05 12:02 | 51.91541 | 2.41476 | 19386 ft | 420 kts | 263° |
| 2026-05-05 12:03 | 51.91209 | 2.36800 | 18675 ft | 416 kts | 263° |
| 2026-05-05 12:03 | 51.90878 | 2.32172 | 18184 ft | 413 kts | 263° |
| 2026-05-05 12:03 | 51.90658 | 2.27519 | 17975 ft | 414 kts | 268° |
| 2026-05-05 12:03 | 51.90588 | 2.23005 | 17960 ft | 395 kts | 268° |
| 2026-05-05 12:04 | 51.90526 | 2.18633 | 17969 ft | 372 kts | 268° |
| 2026-05-05 12:04 | 51.90457 | 2.14614 | 17962 ft | 352 kts | 268° |
| 2026-05-05 12:04 | 51.90379 | 2.10762 | 17965 ft | 334 kts | 267° |
| 2026-05-05 12:04 | 51.90296 | 2.07050 | 17978 ft | 327 kts | 266° |
| 2026-05-05 12:05 | 51.90199 | 2.03373 | 17970 ft | 327 kts | 267° |
| 2026-05-05 12:05 | 51.90100 | 1.99700 | 17857 ft | 327 kts | 267° |
| 2026-05-05 12:05 | 51.90000 | 1.96036 | 17383 ft | 325 kts | 266° |
| 2026-05-05 12:05 | 51.89922 | 1.92394 | 16934 ft | 322 kts | 269° |
| 2026-05-05 12:06 | 51.90138 | 1.88802 | 16463 ft | 320 kts | 282° |
| 2026-05-05 12:06 | 51.90849 | 1.85405 | 15993 ft | 317 kts | 294° |
| 2026-05-05 12:06 | 51.91419 | 1.81971 | 15486 ft | 315 kts | 280° |
| 2026-05-05 12:06 | 51.91758 | 1.78480 | 15055 ft | 313 kts | 279° |
| 2026-05-05 12:07 | 51.92069 | 1.75006 | 14615 ft | 311 kts | 278° |
| 2026-05-05 12:07 | 51.92374 | 1.71551 | 14172 ft | 309 kts | 278° |
| 2026-05-05 12:07 | 51.92674 | 1.68124 | 13731 ft | 307 kts | 279° |
| 2026-05-05 12:07 | 51.92973 | 1.64716 | 13247 ft | 304 kts | 279° |
| 2026-05-05 12:08 | 51.93268 | 1.61334 | 12789 ft | 302 kts | 279° |
| 2026-05-05 12:08 | 51.93559 | 1.57979 | 12317 ft | 299 kts | 279° |
| 2026-05-05 12:08 | 51.93847 | 1.54658 | 12019 ft | 297 kts | 278° |
| 2026-05-05 12:08 | 51.94134 | 1.51332 | 11968 ft | 298 kts | 279° |
| 2026-05-05 12:09 | 51.94421 | 1.48002 | 11970 ft | 298 kts | 279° |
| 2026-05-05 12:09 | 51.94706 | 1.44685 | 11969 ft | 297 kts | 279° |
| 2026-05-05 12:09 | 51.94990 | 1.41367 | 11971 ft | 297 kts | 279° |
| 2026-05-05 12:09 | 51.95272 | 1.38053 | 11969 ft | 295 kts | 278° |
| 2026-05-05 12:10 | 51.95543 | 1.34852 | 11962 ft | 279 kts | 279° |
| 2026-05-05 12:10 | 51.95804 | 1.31766 | 11940 ft | 276 kts | 279° |
| 2026-05-05 12:10 | 51.96065 | 1.28692 | 11639 ft | 273 kts | 279° |
| 2026-05-05 12:10 | 51.96322 | 1.25690 | 11432 ft | 265 kts | 278° |
| 2026-05-05 12:11 | 51.96561 | 1.22761 | 11126 ft | 260 kts | 278° |
| 2026-05-05 12:11 | 51.96797 | 1.19869 | 10821 ft | 257 kts | 279° |
| 2026-05-05 12:11 | 51.97032 | 1.17008 | 10480 ft | 255 kts | 279° |
| 2026-05-05 12:11 | 51.97268 | 1.14159 | 10136 ft | 254 kts | 278° |
| 2026-05-05 12:12 | 51.97501 | 1.11328 | 9805 ft | 253 kts | 278° |
| 2026-05-05 12:12 | 51.97734 | 1.08507 | 9414 ft | 252 kts | 278° |
| 2026-05-05 12:12 | 51.97963 | 1.05697 | 9067 ft | 250 kts | 279° |
| 2026-05-05 12:12 | 51.98192 | 1.02913 | 8967 ft | 250 kts | 279° |
| 2026-05-05 12:13 | 51.98421 | 1.00121 | 8958 ft | 250 kts | 279° |
| 2026-05-05 12:13 | 51.98650 | 0.97327 | 8956 ft | 250 kts | 279° |
| 2026-05-05 12:13 | 51.98878 | 0.94533 | 8960 ft | 250 kts | 278° |
| 2026-05-05 12:13 | 51.99104 | 0.91736 | 8961 ft | 250 kts | 279° |
| 2026-05-05 12:14 | 51.99331 | 0.88947 | 8961 ft | 250 kts | 279° |
| 2026-05-05 12:14 | 51.99436 | 0.86120 | 8959 ft | 251 kts | 269° |
| 2026-05-05 12:14 | 51.99325 | 0.83295 | 8961 ft | 251 kts | 267° |
| 2026-05-05 12:14 | 51.99170 | 0.80470 | 8963 ft | 251 kts | 266° |
| 2026-05-05 12:15 | 51.99061 | 0.78604 | 8958 ft | 251 kts | 266° |
| 2026-05-05 12:15 | 51.98901 | 0.75782 | 8962 ft | 251 kts | 266° |
| 2026-05-05 12:15 | 51.98747 | 0.72966 | 8964 ft | 251 kts | 266° |
| 2026-05-05 12:15 | 51.98588 | 0.70147 | 8964 ft | 251 kts | 266° |
| 2026-05-05 12:16 | 51.98439 | 0.67328 | 8964 ft | 251 kts | 266° |
| 2026-05-05 12:16 | 51.98286 | 0.64511 | 8965 ft | 251 kts | 266° |
| 2026-05-05 12:16 | 51.98129 | 0.61693 | 8965 ft | 251 kts | 266° |
| 2026-05-05 12:16 | 51.97970 | 0.58873 | 8964 ft | 251 kts | 266° |
| 2026-05-05 12:17 | 51.97810 | 0.56051 | 8963 ft | 251 kts | 266° |
| 2026-05-05 12:17 | 51.97647 | 0.53242 | 8965 ft | 251 kts | 266° |
| 2026-05-05 12:17 | 51.97482 | 0.50442 | 8797 ft | 248 kts | 266° |
| 2026-05-05 12:17 | 51.97326 | 0.47654 | 8387 ft | 249 kts | 266° |
| 2026-05-05 12:18 | 51.97170 | 0.44854 | 8044 ft | 249 kts | 266° |
| 2026-05-05 12:18 | 51.97021 | 0.42060 | 7963 ft | 249 kts | 266° |
| 2026-05-05 12:18 | 51.96877 | 0.39266 | 7965 ft | 248 kts | 266° |
| 2026-05-05 12:18 | 51.96560 | 0.36521 | 7962 ft | 244 kts | 255° |
| 2026-05-05 12:19 | 51.96036 | 0.33991 | 7961 ft | 230 kts | 251° |
| 2026-05-05 12:19 | 51.95495 | 0.31569 | 7961 ft | 228 kts | 251° |
| 2026-05-05 12:19 | 51.94948 | 0.29156 | 7964 ft | 228 kts | 251° |
| 2026-05-05 12:19 | 51.94404 | 0.26747 | 7965 ft | 227 kts | 251° |
| 2026-05-05 12:20 | 51.93863 | 0.24343 | 7918 ft | 226 kts | 251° |
| 2026-05-05 12:20 | 51.93330 | 0.21974 | 7648 ft | 224 kts | 251° |
| 2026-05-05 12:20 | 51.92792 | 0.19587 | 7328 ft | 226 kts | 251° |
| 2026-05-05 12:20 | 51.92165 | 0.17261 | 7021 ft | 226 kts | 243° |
| 2026-05-05 12:21 | 51.91397 | 0.15032 | 6727 ft | 226 kts | 242° |
| 2026-05-05 12:21 | 51.90624 | 0.12864 | 6436 ft | 225 kts | 241° |
| 2026-05-05 12:21 | 51.89833 | 0.10667 | 6102 ft | 225 kts | 242° |
| 2026-05-05 12:21 | 51.89052 | 0.08485 | 5786 ft | 223 kts | 241° |
| 2026-05-05 12:22 | 51.88269 | 0.06277 | 5370 ft | 226 kts | 241° |
| 2026-05-05 12:22 | 51.87506 | 0.04105 | 5057 ft | 222 kts | 241° |
| 2026-05-05 12:22 | 51.86747 | 0.01923 | 4709 ft | 223 kts | 241° |
| 2026-05-05 12:22 | 51.85988 | -0.00266 | 4306 ft | 224 kts | 241° |
| 2026-05-05 12:23 | 51.85222 | -0.02445 | 3995 ft | 221 kts | 242° |
| 2026-05-05 12:23 | 51.84450 | -0.04577 | 3654 ft | 219 kts | 242° |
| 2026-05-05 12:23 | 51.83508 | -0.06513 | 3240 ft | 221 kts | 220° |
| 2026-05-05 12:23 | 51.82115 | -0.07421 | 3027 ft | 216 kts | 185° |
| 2026-05-05 12:24 | 51.80650 | -0.06955 | 3013 ft | 217 kts | 151° |
| 2026-05-05 12:24 | 51.79887 | -0.06095 | 3023 ft | 214 kts | 137° |
| 2026-05-05 12:24 | 51.78834 | -0.04443 | 2843 ft | 213 kts | 132° |
| 2026-05-05 12:24 | 51.77825 | -0.02703 | 2497 ft | 212 kts | 130° |
| 2026-05-05 12:25 | 51.76839 | -0.00949 | 2147 ft | 209 kts | 125° |
| 2026-05-05 12:25 | 51.76352 | 0.01159 | 1999 ft | 199 kts | 90° |
| 2026-05-05 12:25 | 51.76703 | 0.03273 | 1996 ft | 197 kts | 59° |
| 2026-05-05 12:25 | 51.77506 | 0.04980 | 1982 ft | 183 kts | 50° |
| 2026-05-05 12:26 | 51.78302 | 0.06444 | 1976 ft | 165 kts | 49° |
| 2026-05-05 12:26 | 51.79015 | 0.07738 | 1983 ft | 143 kts | 49° |
| 2026-05-05 12:26 | 51.79642 | 0.08861 | 1978 ft | 128 kts | 48° |
| 2026-05-05 12:26 | 51.80207 | 0.09867 | 1979 ft | 118 kts | 47° |
| 2026-05-05 12:27 | 51.80759 | 0.10859 | 1993 ft | 119 kts | 49° |
| 2026-05-05 12:27 | 51.81317 | 0.11841 | 1984 ft | 119 kts | 46° |
| 2026-05-05 12:27 | 51.81925 | 0.12747 | 1982 ft | 119 kts | 43° |
| 2026-05-05 12:27 | 51.82531 | 0.13661 | 2002 ft | 120 kts | 45° |
| 2026-05-05 12:28 | 51.83065 | 0.14694 | 1851 ft | 119 kts | 51° |
| 2026-05-05 12:28 | 51.83609 | 0.15723 | 1554 ft | 122 kts | 48° |
| 2026-05-05 12:28 | 51.84195 | 0.16749 | 1272 ft | 124 kts | 47° |
| 2026-05-05 12:28 | 51.84742 | 0.17838 | 1040 ft | 126 kts | 45° |
| 2026-05-05 12:29 | 51.85392 | 0.18773 | 795 ft | 125 kts | 43° |
| 2026-05-05 12:29 | 51.86017 | 0.19749 | 577 ft | 125 kts | 39° |
| 2026-05-05 12:29 | 51.86638 | 0.20696 | 374 ft | 121 kts | 45° |
| 2026-05-05 12:29 | 51.87210 | 0.21595 | 371 ft | 121 kts | 41° |
| 2026-05-05 12:30 | 51.87849 | 0.22504 | 353 ft | 117 kts | 43° |
| 2026-05-05 12:30 | 51.88254 | 0.23108 | 354 ft | 51 kts | 43° |
| 2026-05-05 12:30 | 51.88502 | 0.23483 | 356 ft | 46 kts | 43° |
| 2026-05-05 12:30 | 51.88727 | 0.23817 | 359 ft | 34 kts | 43° |
| 2026-05-05 12:31 | 51.88837 | 0.24050 | 360 ft | 25 kts | 62° |
| 2026-05-05 12:31 | 51.88873 | 0.24192 | 358 ft | 12 kts | 71° |
| 2026-05-05 12:31 | 51.88898 | 0.24317 | 356 ft | 0 kts | 73° |
| 2026-05-05 12:31 | 51.88899 | 0.24323 | 356 ft | 1 kts | 73° |
| 2026-05-05 12:32 | 51.88905 | 0.24360 | 359 ft | 6 kts | 75° |
| 2026-05-05 12:32 | 51.88916 | 0.24442 | 358 ft | 8 kts | 86° |
| 2026-05-05 12:32 | 51.88914 | 0.24468 | 360 ft | 0 kts | 97° |
| 2026-05-05 12:32 | 51.88936 | 0.24553 | 366 ft | 7 kts | 69° |
| 2026-05-05 12:33 | 51.88968 | 0.24657 | 367 ft | 13 kts | 57° |
| 2026-05-05 12:33 | 51.89012 | 0.24798 | 366 ft | 15 kts | 95° |
| 2026-05-05 12:33 | 51.88977 | 0.24938 | 363 ft | 0 kts | 108° |
| 2026-05-05 12:33 | 51.88978 | 0.24958 | 364 ft | 0 kts | 82° |
| 2026-05-05 12:34 | 51.89026 | 0.25052 | 367 ft | 19 kts | 44° |
| 2026-05-05 12:34 | 51.89131 | 0.25211 | 367 ft | 22 kts | 44° |
| 2026-05-05 12:34 | 51.89139 | 0.25337 | 365 ft | 9 kts | 122° |
| 2026-05-05 12:34 | 51.89134 | 0.25398 | 365 ft | 5 kts | 71° |
| 2026-05-05 12:35 | 51.89159 | 0.25455 | 367 ft | 0 kts | 44° |
| 2026-05-05 12:35 | 51.89165 | 0.25463 | 365 ft | 0 kts | 42° |